Time;durP1;ratioP1;P1;durP2;ratioP2;P2;SDS_P1;SDS_P2;PMS_P1;PMS_P2;Temp;Humidity;BMP_temperature;BMP_pressure;BME280_temperature;BME280_humidity;BME280_pressure;Samples;Min_cycle;Max_cycle;Signal;HPM_P1;HPM_P2
2022/06/27 00:00:34;;;;;;;;;28.50;23.50;;;;;;;;4979228;28;8764;-68
2022/06/27 00:03:00;;;;;;;;;24.25;23.50;;;;;;;;4979688;28;8783;-68
2022/06/27 00:05:27;;;;;;;;;23.00;21.00;;;;;;;;4979731;28;8775;-68
2022/06/27 00:07:54;;;;;;;;;25.75;19.50;;;;;;;;4980175;28;8783;-68
2022/06/27 00:10:20;;;;;;;;;26.75;24.50;;;;;;;;4980488;28;8866;-67
2022/06/27 00:12:47;;;;;;;;;23.50;22.25;;;;;;;;4979846;28;8914;-68
2022/06/27 00:15:13;;;;;;;;;28.50;24.50;;;;;;;;4979912;28;8783;-68
2022/06/27 00:17:40;;;;;;;;;34.50;31.25;;;;;;;;4978210;28;8776;-68
2022/06/27 00:20:07;;;;;;;;;31.25;30.00;;;;;;;;4980022;28;8772;-68
2022/06/27 00:22:34;;;;;;;;;26.75;25.00;;;;;;;;4979408;28;8899;-68
2022/06/27 00:25:00;;;;;;;;;29.25;27.25;;;;;;;;4980052;28;9409;-68
2022/06/27 00:27:27;;;;;;;;;29.75;28.75;;;;;;;;4979436;28;9412;-68
2022/06/27 00:29:54;;;;;;;;;43.00;34.00;;;;;;;;4979604;28;8815;-69
2022/06/27 00:32:23;;;;;;;;;41.50;36.25;;;;;;;;4979029;28;8814;-69
2022/06/27 00:34:50;;;;;;;;;36.25;32.75;;;;;;;;4979561;28;8786;-69
2022/06/27 00:37:19;;;;;;;;;30.50;28.25;;;;;;;;4980226;28;8768;-66
2022/06/27 00:39:46;;;;;;;;;30.50;27.50;;;;;;;;4978234;28;8779;-69
2022/06/27 00:42:13;;;;;;;;;24.25;22.00;;;;;;;;4979270;28;8772;-69
2022/06/27 00:44:40;;;;;;;;;24.25;21.25;;;;;;;;4978490;28;8803;-69
2022/06/27 00:47:07;;;;;;;;;23.00;18.60;;;;;;;;4979421;28;8755;-69
2022/06/27 00:49:34;;;;;;;;;20.00;19.00;;;;;;;;4978976;28;8850;-69
2022/06/27 00:52:01;;;;;;;;;19.00;16.80;;;;;;;;4980106;28;8743;-69
2022/06/27 00:54:28;;;;;;;;;17.80;17.80;;;;;;;;4962027;28;8779;-69
2022/06/27 00:56:54;;;;;;;;;16.00;14.60;;;;;;;;4979239;28;8779;-69
2022/06/27 00:59:21;;;;;;;;;16.20;15.20;;;;;;;;4978678;28;8873;-69
2022/06/27 01:01:50;;;;;;;;;11.00;10.20;;;;;;;;4961866;28;8751;-69
2022/06/27 01:04:16;;;;;;;;;11.60;11.60;;;;;;;;4979902;28;8780;-68
2022/06/27 01:06:43;;;;;;;;;8.00;7.00;;;;;;;;4978639;28;8790;-69
2022/06/27 01:09:10;;;;;;;;;12.80;10.80;;;;;;;;4978771;28;8799;-69
2022/06/27 01:11:36;;;;;;;;;22.75;19.00;;;;;;;;4978329;28;10273;-69
2022/06/27 01:14:03;;;;;;;;;23.60;20.00;;;;;;;;4978629;28;8791;-69
2022/06/27 01:16:30;;;;;;;;;12.60;10.00;;;;;;;;4978466;28;8744;-69
2022/06/27 01:18:56;;;;;;;;;6.00;6.00;;;;;;;;4962190;28;8775;-70
2022/06/27 01:21:24;;;;;;;;;12.60;10.20;;;;;;;;4961849;28;8771;-69
2022/06/27 01:23:50;;;;;;;;;13.20;11.20;;;;;;;;4978804;28;8855;-69
2022/06/27 01:26:18;;;;;;;;;12.20;10.40;;;;;;;;4978756;28;8799;-67
2022/06/27 01:28:44;;;;;;;;;10.60;10.00;;;;;;;;4978644;28;8924;-69
2022/06/27 01:31:14;;;;;;;;;16.00;12.00;;;;;;;;4979081;28;8799;-70
2022/06/27 01:33:41;;;;;;;;;11.60;9.00;;;;;;;;4978453;28;8814;-69
2022/06/27 01:38:53;;;;;;;;;9.20;9.20;;;;;;;;4978611;28;8791;-69
2022/06/27 01:41:19;;;;;;;;;11.40;11.00;;;;;;;;4977150;28;8783;-68
2022/06/27 01:43:46;;;;;;;;;9.60;9.40;;;;;;;;4978461;28;8786;-69
2022/06/27 01:46:13;;;;;;;;;8.40;8.00;;;;;;;;4979033;28;8752;-69
2022/06/27 01:48:40;;;;;;;;;10.00;9.80;;;;;;;;4961074;28;8851;-69
2022/06/27 01:51:09;;;;;;;;;10.00;8.00;;;;;;;;4960929;28;8767;-69
2022/06/27 01:53:39;;;;;;;;;8.80;8.00;;;;;;;;4978026;28;8772;-70
2022/06/27 01:56:06;;;;;;;;;12.40;11.80;;;;;;;;4978587;28;8783;-69
2022/06/27 01:58:33;;;;;;;;;14.00;13.00;;;;;;;;4961192;28;8772;-69
2022/06/27 02:00:59;;;;;;;;;6.00;6.00;;;;;;;;4978874;28;8764;-69
2022/06/27 02:03:26;;;;;;;;;14.40;14.00;;;;;;;;4978097;28;8774;-69
2022/06/27 02:05:52;;;;;;;;;17.20;13.40;;;;;;;;4977711;28;8775;-70
2022/06/27 02:08:22;;;;;;;;;18.60;16.40;;;;;;;;4977017;28;8791;-68
2022/06/27 02:10:49;;;;;;;;;17.80;13.80;;;;;;;;4978205;28;8783;-69
2022/06/27 02:13:16;;;;;;;;;17.00;16.80;;;;;;;;4961368;28;8783;-70
2022/06/27 02:16:01;;;;;;;;;15.00;15.00;;;;;;;;4978004;28;8938;-70
2022/06/27 02:18:27;;;;;;;;;16.60;14.60;;;;;;;;4958449;29;8758;-69
2022/06/27 02:20:54;;;;;;;;;15.20;13.60;;;;;;;;4958438;28;8796;-70
2022/06/27 02:23:21;;;;;;;;;18.60;16.40;;;;;;;;4941764;28;8817;-69
2022/06/27 02:25:48;;;;;;;;;19.00;18.80;;;;;;;;4962641;28;8905;-69
2022/06/27 02:28:15;;;;;;;;;17.60;16.60;;;;;;;;4977789;28;8786;-70
2022/06/27 02:30:42;;;;;;;;;16.00;14.20;;;;;;;;4977447;28;8915;-70
2022/06/27 02:33:08;;;;;;;;;14.00;13.40;;;;;;;;4981155;28;8779;-70
2022/06/27 02:35:35;;;;;;;;;13.40;12.20;;;;;;;;4981340;28;8799;-69
2022/06/27 02:38:02;;;;;;;;;8.00;6.40;;;;;;;;4980956;28;8796;-70
2022/06/27 02:40:29;;;;;;;;;9.80;8.00;;;;;;;;4980484;28;8863;-69
2022/06/27 02:42:56;;;;;;;;;11.00;11.00;;;;;;;;4956743;28;8939;-70
2022/06/27 02:45:23;;;;;;;;;12.00;11.60;;;;;;;;4957494;28;9446;-69
2022/06/27 02:47:49;;;;;;;;;12.20;11.00;;;;;;;;4957520;28;8792;-70
2022/06/27 02:50:16;;;;;;;;;13.00;13.00;;;;;;;;4943064;28;8828;-69
2022/06/27 02:52:45;;;;;;;;;13.40;12.40;;;;;;;;4942613;28;8762;-69
2022/06/27 02:55:17;;;;;;;;;11.40;10.80;;;;;;;;4942570;29;8951;-69
2022/06/27 02:57:44;;;;;;;;;8.20;7.80;;;;;;;;4942509;28;9882;-69
2022/06/27 03:00:11;;;;;;;;;12.60;11.60;;;;;;;;4942682;28;8750;-69
2022/06/27 03:02:38;;;;;;;;;13.80;12.60;;;;;;;;4942576;28;8892;-69
2022/06/27 03:05:05;;;;;;;;;10.60;10.60;;;;;;;;4942585;28;8786;-69
2022/06/27 03:07:36;;;;;;;;;14.20;10.60;;;;;;;;4942567;28;8766;-69
2022/06/27 03:10:03;;;;;;;;;12.80;11.20;;;;;;;;4942708;29;8790;-69
2022/06/27 03:12:30;;;;;;;;;14.00;12.80;;;;;;;;4942407;28;8800;-69
2022/06/27 03:14:57;;;;;;;;;7.80;7.80;;;;;;;;4941133;29;8885;-69
2022/06/27 03:17:23;;;;;;;;;11.60;10.80;;;;;;;;4942356;28;8789;-69
2022/06/27 03:19:50;;;;;;;;;16.00;12.60;;;;;;;;4942387;28;8885;-70
2022/06/27 03:22:17;;;;;;;;;23.25;21.00;;;;;;;;4942926;29;8769;-69
2022/06/27 03:24:44;;;;;;;;;11.60;11.60;;;;;;;;4942466;28;9148;-69
2022/06/27 03:27:11;;;;;;;;;9.40;9.20;;;;;;;;4942353;28;8876;-69
2022/06/27 03:29:37;;;;;;;;;14.60;11.80;;;;;;;;4941768;28;8831;-69
2022/06/27 03:32:04;;;;;;;;;9.00;8.80;;;;;;;;4941130;29;8804;-69
2022/06/27 03:34:31;;;;;;;;;10.00;9.40;;;;;;;;4956876;28;8746;-69
2022/06/27 03:36:58;;;;;;;;;11.60;9.00;;;;;;;;4942021;29;8758;-69
2022/06/27 03:39:25;;;;;;;;;8.00;7.20;;;;;;;;4942030;28;8781;-69
2022/06/27 03:41:52;;;;;;;;;7.40;7.40;;;;;;;;4941865;28;8782;-69
2022/06/27 03:44:18;;;;;;;;;7.40;5.60;;;;;;;;4973354;28;8905;-69
2022/06/27 03:46:45;;;;;;;;;8.60;8.60;;;;;;;;4979166;28;8818;-69
2022/06/27 03:51:57;;;;;;;;;7.00;7.00;;;;;;;;4980781;28;8763;-69
2022/06/27 03:54:24;;;;;;;;;9.20;7.00;;;;;;;;4962865;28;8767;-69
2022/06/27 03:56:52;;;;;;;;;6.40;6.20;;;;;;;;4963112;28;8768;-70
2022/06/27 03:59:18;;;;;;;;;5.60;5.20;;;;;;;;4980136;28;8810;-70
2022/06/27 04:01:46;;;;;;;;;7.00;7.00;;;;;;;;4979888;28;8807;-70
2022/06/27 04:04:12;;;;;;;;;5.80;4.60;;;;;;;;4980772;28;8768;-70
2022/06/27 04:06:39;;;;;;;;;7.00;7.00;;;;;;;;4980117;28;8833;-69
2022/06/27 04:09:06;;;;;;;;;6.40;5.80;;;;;;;;4979608;28;8861;-70
2022/06/27 04:11:32;;;;;;;;;4.20;4.00;;;;;;;;4979896;28;8763;-70
2022/06/27 04:13:59;;;;;;;;;7.00;7.00;;;;;;;;4979889;28;8899;-70
2022/06/27 04:16:25;;;;;;;;;6.00;6.00;;;;;;;;4979353;28;8842;-66
2022/06/27 04:18:54;;;;;;;;;4.40;4.40;;;;;;;;4963353;28;8791;-69
2022/06/27 04:21:20;;;;;;;;;13.40;12.40;;;;;;;;4979115;28;8901;-68
2022/06/27 04:23:47;;;;;;;;;5.00;5.00;;;;;;;;4979004;28;8764;-69
2022/06/27 04:26:14;;;;;;;;;6.00;5.00;;;;;;;;4979621;28;8822;-70
2022/06/27 04:28:40;;;;;;;;;7.20;5.80;;;;;;;;4979246;28;8748;-69
2022/06/27 04:31:07;;;;;;;;;4.00;4.00;;;;;;;;4979845;28;8784;-69
2022/06/27 04:33:33;;;;;;;;;3.80;3.60;;;;;;;;4979155;28;8798;-69
2022/06/27 04:36:00;;;;;;;;;6.20;3.40;;;;;;;;4979714;28;8767;-69
2022/06/27 04:38:27;;;;;;;;;5.20;3.20;;;;;;;;4961689;28;8783;-69
2022/06/27 04:40:54;;;;;;;;;2.00;2.00;;;;;;;;4978975;28;8782;-69
2022/06/27 04:43:21;;;;;;;;;3.80;2.80;;;;;;;;4979446;28;8804;-68
2022/06/27 04:45:52;;;;;;;;;2.00;2.00;;;;;;;;4979353;28;8878;-69
2022/06/27 04:48:20;;;;;;;;;3.60;3.60;;;;;;;;4978523;28;9488;-68
2022/06/27 04:50:47;;;;;;;;;2.40;2.40;;;;;;;;4978999;28;8764;-69
2022/06/27 04:53:14;;;;;;;;;1.40;1.40;;;;;;;;4979517;28;8815;-70
2022/06/27 04:55:41;;;;;;;;;4.20;2.00;;;;;;;;4979048;28;8775;-69
2022/06/27 04:58:11;;;;;;;;;2.60;2.00;;;;;;;;4979823;28;8751;-70
2022/06/27 05:00:38;;;;;;;;;4.60;2.80;;;;;;;;4979026;28;8803;-69
2022/06/27 05:03:04;;;;;;;;;2.60;2.60;;;;;;;;4978879;28;8881;-69
2022/06/27 05:05:31;;;;;;;;;3.00;3.00;;;;;;;;4978838;28;8768;-69
2022/06/27 05:07:58;;;;;;;;;1.00;1.00;;;;;;;;4979209;28;8772;-69
2022/06/27 05:10:24;;;;;;;;;3.20;2.20;;;;;;;;4979288;28;8802;-68
2022/06/27 05:12:51;;;;;;;;;1.20;1.20;;;;;;;;4978893;28;8862;-69
2022/06/27 05:15:18;;;;;;;;;0.40;0.40;;;;;;;;4978572;28;8776;-64
2022/06/27 05:17:45;;;;;;;;;0.20;0.20;;;;;;;;4978424;28;8819;-69
2022/06/27 05:20:12;;;;;;;;;0.60;0.60;;;;;;;;4961531;28;8779;-69
2022/06/27 05:22:39;;;;;;;;;1.00;1.00;;;;;;;;4978702;28;8807;-69
2022/06/27 05:25:07;;;;;;;;;2.40;2.40;;;;;;;;4979447;28;8890;-69
2022/06/27 05:27:35;;;;;;;;;2.00;2.00;;;;;;;;4961055;28;8840;-69
2022/06/27 05:30:03;;;;;;;;;1.80;0.60;;;;;;;;4978343;28;8825;-69
2022/06/27 05:32:29;;;;;;;;;1.20;1.20;;;;;;;;4978294;28;8878;-69
2022/06/27 05:34:56;;;;;;;;;4.80;2.00;;;;;;;;4961456;28;8771;-70
2022/06/27 05:37:23;;;;;;;;;3.40;2.00;;;;;;;;4978522;28;8798;-69
2022/06/27 05:39:50;;;;;;;;;1.80;1.80;;;;;;;;4976954;28;8764;-69
2022/06/27 05:42:17;;;;;;;;;2.00;1.20;;;;;;;;4978144;28;8771;-70
2022/06/27 05:44:44;;;;;;;;;2.00;2.00;;;;;;;;4978217;28;8862;-69
2022/06/27 05:47:11;;;;;;;;;2.00;2.00;;;;;;;;4978419;28;9429;-70
2022/06/27 05:49:39;;;;;;;;;2.00;2.00;;;;;;;;4960909;28;8862;-69
2022/06/27 05:52:05;;;;;;;;;2.40;1.80;;;;;;;;4979095;28;8871;-70
2022/06/27 05:54:35;;;;;;;;;1.40;1.40;;;;;;;;4978198;28;8882;-69
2022/06/27 05:57:03;;;;;;;;;1.40;1.40;;;;;;;;4977929;28;8889;-69
2022/06/27 05:59:31;;;;;;;;;1.60;1.60;;;;;;;;4982433;28;8771;-69
2022/06/27 06:02:00;;;;;;;;;2.40;2.00;;;;;;;;4984895;28;8759;-70
2022/06/27 06:04:27;;;;;;;;;1.40;1.00;;;;;;;;4984436;28;8778;-68
2022/06/27 06:06:54;;;;;;;;;1.40;1.00;;;;;;;;4985240;28;8770;-70
2022/06/27 06:09:21;;;;;;;;;1.40;1.40;;;;;;;;4984095;28;8863;-70
2022/06/27 06:11:48;;;;;;;;;1.00;1.00;;;;;;;;4984485;28;8763;-70
2022/06/27 06:14:17;;;;;;;;;2.00;2.00;;;;;;;;4984643;28;8782;-70
2022/06/27 06:16:44;;;;;;;;;0.60;0.60;;;;;;;;4984030;28;8759;-69
2022/06/27 06:19:11;;;;;;;;;0.20;0.20;;;;;;;;4970453;28;8791;-69
2022/06/27 06:21:38;;;;;;;;;1.00;0.00;;;;;;;;4984132;28;8791;-70
2022/06/27 06:24:05;;;;;;;;;0.40;0.00;;;;;;;;4984452;28;8764;-69
2022/06/27 06:26:32;;;;;;;;;2.60;1.00;;;;;;;;4984101;28;8784;-69
2022/06/27 06:29:12;;;;;;;;;1.80;1.80;;;;;;;;4984175;28;9334;-69
2022/06/27 06:31:43;;;;;;;;;1.80;1.80;;;;;;;;4966531;28;8803;-69
2022/06/27 06:34:10;;;;;;;;;1.80;0.00;;;;;;;;4967591;28;8772;-69
2022/06/27 06:36:38;;;;;;;;;0.20;0.20;;;;;;;;4983953;28;10126;-69
2022/06/27 06:39:05;;;;;;;;;2.00;0.80;;;;;;;;4984257;28;8771;-70
2022/06/27 06:41:32;;;;;;;;;2.80;1.00;;;;;;;;4984173;28;8894;-70
2022/06/27 06:43:59;;;;;;;;;1.00;1.00;;;;;;;;4984450;28;8873;-69
2022/06/27 06:46:30;;;;;;;;;0.00;0.00;;;;;;;;4984724;28;8756;-69
2022/06/27 06:49:06;;;;;;;;;0.20;0.20;;;;;;;;4984728;28;8812;-70
2022/06/27 06:51:37;;;;;;;;;0.40;0.40;;;;;;;;4984003;28;8857;-70
2022/06/27 06:54:07;;;;;;;;;0.00;0.00;;;;;;;;4984039;28;8791;-70
2022/06/27 06:56:34;;;;;;;;;3.40;3.20;;;;;;;;4983717;28;8790;-70
2022/06/27 06:59:01;;;;;;;;;9.00;9.00;;;;;;;;4984052;28;8776;-70
2022/06/27 07:01:27;;;;;;;;;23.75;22.50;;;;;;;;4983856;28;8837;-69
2022/06/27 07:03:54;;;;;;;;;0.00;0.00;;;;;;;;4985014;28;8895;-70
2022/06/27 07:06:30;;;;;;;;;0.00;0.00;;;;;;;;4984101;28;8779;-69
2022/06/27 07:08:58;;;;;;;;;1.00;1.00;;;;;;;;4984105;28;8786;-70
2022/06/27 07:11:25;;;;;;;;;1.00;0.80;;;;;;;;4981091;28;9004;-70
2022/06/27 07:13:52;;;;;;;;;3.00;1.00;;;;;;;;4981131;28;8786;-70
2022/06/27 07:16:19;;;;;;;;;1.00;0.20;;;;;;;;4981507;28;8779;-68
2022/06/27 07:18:49;;;;;;;;;2.00;1.40;;;;;;;;4981076;28;8779;-70
2022/06/27 07:21:19;;;;;;;;;18.00;15.75;;;;;;;;4980916;28;8791;-70
2022/06/27 07:23:47;;;;;;;;;14.40;13.60;;;;;;;;4963630;28;8771;-70
2022/06/27 07:26:14;;;;;;;;;2.00;2.00;;;;;;;;4964314;28;8802;-70
2022/06/27 07:28:41;;;;;;;;;0.40;0.00;;;;;;;;4980786;28;8810;-69
2022/06/27 07:31:14;;;;;;;;;1.00;1.00;;;;;;;;4980968;28;8783;-70
2022/06/27 07:33:44;;;;;;;;;2.20;1.00;;;;;;;;4979451;28;8780;-70
2022/06/27 07:36:17;;;;;;;;;1.00;0.60;;;;;;;;4980570;28;8775;-70
2022/06/27 07:38:49;;;;;;;;;2.00;1.00;;;;;;;;4963205;28;8779;-70
2022/06/27 07:41:16;;;;;;;;;3.00;2.00;;;;;;;;4980699;28;8771;-70
2022/06/27 07:43:46;;;;;;;;;1.00;1.00;;;;;;;;4980326;28;8807;-70
2022/06/27 07:46:15;;;;;;;;;2.80;1.80;;;;;;;;4981098;28;9424;-69
2022/06/27 07:48:42;;;;;;;;;1.40;1.40;;;;;;;;4980549;28;8795;-69
2022/06/27 07:51:09;;;;;;;;;2.00;2.00;;;;;;;;4980185;28;9574;-70
2022/06/27 07:53:37;;;;;;;;;3.20;3.20;;;;;;;;4980233;28;9441;-69
2022/06/27 07:56:06;;;;;;;;;5.80;5.80;;;;;;;;4980257;28;8799;-69
2022/06/27 07:58:33;;;;;;;;;5.20;4.40;;;;;;;;4962366;28;8767;-69
2022/06/27 08:01:04;;;;;;;;;5.40;5.40;;;;;;;;4980609;28;8779;-70
2022/06/27 08:03:38;;;;;;;;;2.00;2.00;;;;;;;;4979652;28;8787;-69
2022/06/27 08:06:07;;;;;;;;;3.00;3.00;;;;;;;;4980008;28;8783;-69
2022/06/27 08:08:37;;;;;;;;;4.00;4.00;;;;;;;;4979969;28;8890;-69
2022/06/27 08:11:04;;;;;;;;;3.00;2.60;;;;;;;;4980176;28;8768;-70
2022/06/27 08:13:31;;;;;;;;;2.60;2.20;;;;;;;;4978725;28;8763;-69
2022/06/27 08:15:58;;;;;;;;;2.40;1.60;;;;;;;;4980356;28;8783;-70
2022/06/27 08:18:25;;;;;;;;;4.40;2.60;;;;;;;;4979692;28;8798;-69
2022/06/27 08:20:52;;;;;;;;;2.20;2.20;;;;;;;;4979308;28;8767;-70
2022/06/27 08:23:18;;;;;;;;;2.00;2.00;;;;;;;;4962250;28;8755;-68
2022/06/27 08:25:47;;;;;;;;;1.20;1.20;;;;;;;;4979539;28;9101;-69
2022/06/27 08:28:16;;;;;;;;;2.00;2.00;;;;;;;;4980374;28;8814;-70
2022/06/27 08:30:43;;;;;;;;;1.80;1.60;;;;;;;;4962450;28;8881;-69
2022/06/27 08:33:11;;;;;;;;;3.00;2.00;;;;;;;;4979245;28;8779;-70
2022/06/27 08:35:39;;;;;;;;;1.80;1.80;;;;;;;;4961628;28;9449;-69
2022/06/27 08:38:06;;;;;;;;;7.00;6.60;;;;;;;;4978279;28;8870;-69
2022/06/27 08:40:32;;;;;;;;;5.00;5.00;;;;;;;;4961393;28;8767;-70
2022/06/27 08:43:00;;;;;;;;;7.40;4.20;;;;;;;;4979816;28;8788;-70
2022/06/27 08:45:28;;;;;;;;;3.60;2.20;;;;;;;;4977754;28;8954;-69
2022/06/27 08:47:58;;;;;;;;;6.00;3.00;;;;;;;;4958564;28;8789;-69
2022/06/27 08:50:26;;;;;;;;;3.00;3.00;;;;;;;;4959542;28;8817;-69
2022/06/27 08:52:54;;;;;;;;;1.40;0.00;;;;;;;;4959262;28;8765;-70
2022/06/27 08:55:21;;;;;;;;;1.60;1.20;;;;;;;;4959716;28;8762;-69
2022/06/27 08:57:48;;;;;;;;;1.60;1.00;;;;;;;;4959623;28;8793;-69
2022/06/27 09:00:15;;;;;;;;;3.40;2.80;;;;;;;;4959466;28;8801;-69
2022/06/27 09:02:44;;;;;;;;;4.00;3.00;;;;;;;;4974357;28;8794;-69
2022/06/27 09:05:17;;;;;;;;;2.20;2.20;;;;;;;;4978992;28;8874;-69
2022/06/27 09:07:47;;;;;;;;;3.00;3.00;;;;;;;;4961369;28;8764;-70
2022/06/27 09:10:26;;;;;;;;;4.20;3.80;;;;;;;;4979640;28;8772;-70
2022/06/27 09:13:00;;;;;;;;;3.00;3.00;;;;;;;;4978871;28;9496;-69
2022/06/27 09:15:28;;;;;;;;;2.60;2.20;;;;;;;;4978447;28;8845;-69
2022/06/27 09:18:08;;;;;;;;;1.80;0.20;;;;;;;;4977493;28;9415;-69
2022/06/27 09:20:54;;;;;;;;;2.60;2.00;;;;;;;;4978544;28;8780;-69
2022/06/27 09:23:27;;;;;;;;;2.00;1.40;;;;;;;;4978359;28;8788;-69
2022/06/27 09:25:59;;;;;;;;;2.20;1.80;;;;;;;;4978743;28;8747;-69
2022/06/27 09:28:41;;;;;;;;;3.00;2.00;;;;;;;;4978000;28;8752;-69
2022/06/27 09:31:10;;;;;;;;;4.20;2.00;;;;;;;;4979216;28;8906;-70
2022/06/27 09:33:38;;;;;;;;;2.60;2.60;;;;;;;;4977622;28;8821;-70
2022/06/27 09:36:15;;;;;;;;;2.00;1.40;;;;;;;;4978530;28;8787;-70
2022/06/27 09:38:42;;;;;;;;;0.00;0.00;;;;;;;;4978529;28;8779;-69
2022/06/27 09:41:13;;;;;;;;;3.00;2.00;;;;;;;;4978481;28;8763;-70
2022/06/27 09:43:46;;;;;;;;;2.80;2.00;;;;;;;;4978243;28;8803;-70
2022/06/27 09:46:15;;;;;;;;;2.00;1.60;;;;;;;;4979289;28;8768;-70
2022/06/27 09:48:44;;;;;;;;;2.80;2.80;;;;;;;;4978070;28;8858;-70
2022/06/27 09:51:15;;;;;;;;;1.60;1.60;;;;;;;;4961368;28;8776;-70
2022/06/27 09:53:47;;;;;;;;;1.00;1.00;;;;;;;;4977862;28;8795;-70
2022/06/27 09:56:15;;;;;;;;;3.20;3.00;;;;;;;;4978354;28;8807;-70
2022/06/27 09:58:41;;;;;;;;;3.80;2.80;;;;;;;;4960881;28;8783;-69
2022/06/27 10:01:09;;;;;;;;;4.20;3.00;;;;;;;;4978997;28;8870;-69
2022/06/27 10:03:37;;;;;;;;;5.00;2.60;;;;;;;;4977920;28;8779;-69
2022/06/27 10:06:10;;;;;;;;;2.80;1.20;;;;;;;;4978173;28;9433;-70
2022/06/27 10:08:40;;;;;;;;;6.20;5.00;;;;;;;;4977918;28;8771;-70
2022/06/27 10:11:10;;;;;;;;;3.80;3.00;;;;;;;;4978122;28;8826;-70
2022/06/27 10:13:37;;;;;;;;;3.00;3.00;;;;;;;;4978150;28;8838;-69
2022/06/27 10:16:08;;;;;;;;;1.20;1.00;;;;;;;;4978692;28;8804;-70
2022/06/27 10:18:53;;;;;;;;;1.00;1.00;;;;;;;;4977724;28;9432;-69
2022/06/27 10:21:25;;;;;;;;;1.00;1.00;;;;;;;;4977871;28;8847;-68
2022/06/27 10:24:11;;;;;;;;;0.80;0.80;;;;;;;;4960695;28;8786;-70
2022/06/27 10:26:41;;;;;;;;;1.40;1.40;;;;;;;;4977734;28;9467;-70
2022/06/27 10:29:26;;;;;;;;;2.00;1.00;;;;;;;;4978142;28;8791;-70
2022/06/27 10:31:52;;;;;;;;;0.00;0.00;;;;;;;;4960564;28;8748;-69
2022/06/27 10:34:19;;;;;;;;;1.80;1.00;;;;;;;;4960948;28;8806;-68
2022/06/27 10:36:45;;;;;;;;;2.40;1.40;;;;;;;;4977791;28;8783;-70
2022/06/27 10:39:21;;;;;;;;;1.20;1.00;;;;;;;;4976833;28;8764;-70
2022/06/27 10:41:49;;;;;;;;;2.00;2.00;;;;;;;;4977952;28;8767;-70
2022/06/27 10:44:31;;;;;;;;;2.00;2.00;;;;;;;;4977806;28;9440;-70
2022/06/27 10:46:57;;;;;;;;;4.00;3.00;;;;;;;;4980355;28;8961;-69
2022/06/27 10:49:24;;;;;;;;;2.00;2.00;;;;;;;;4982059;28;8823;-69
2022/06/27 10:51:51;;;;;;;;;2.80;2.00;;;;;;;;4981817;28;8779;-70
2022/06/27 10:54:18;;;;;;;;;2.60;2.00;;;;;;;;4981413;28;8786;-68
2022/06/27 10:56:48;;;;;;;;;1.40;1.40;;;;;;;;4981291;28;9004;-70
2022/06/27 10:59:18;;;;;;;;;2.00;2.00;;;;;;;;4981219;28;8776;-70
2022/06/27 11:01:50;;;;;;;;;0.00;0.00;;;;;;;;4963761;28;9112;-70
2022/06/27 11:04:33;;;;;;;;;4.20;2.00;;;;;;;;4981384;28;8732;-68
2022/06/27 11:07:00;;;;;;;;;3.00;2.00;;;;;;;;4981733;28;8740;-70
2022/06/27 11:09:43;;;;;;;;;3.00;3.00;;;;;;;;4979663;28;8791;-69
2022/06/27 11:12:10;;;;;;;;;8.20;4.00;;;;;;;;4981227;28;8837;-70
2022/06/27 11:15:06;;;;;;;;;5.00;5.00;;;;;;;;4972844;28;8815;-70
2022/06/27 11:17:34;;;;;;;;;3.20;2.00;;;;;;;;4961633;28;8854;-69
2022/06/27 11:20:11;;;;;;;;;5.00;2.80;;;;;;;;4981035;28;9444;-70
2022/06/27 11:22:39;;;;;;;;;1.20;1.20;;;;;;;;4980757;28;8792;-70
2022/06/27 11:25:06;;;;;;;;;3.00;3.00;;;;;;;;4981800;28;8751;-70
2022/06/27 11:27:44;;;;;;;;;4.00;2.80;;;;;;;;4979307;28;9520;-69
2022/06/27 11:32:57;;;;;;;;;3.20;3.20;;;;;;;;4980484;28;9472;-70
2022/06/27 11:35:23;;;;;;;;;2.00;2.00;;;;;;;;4980762;28;8898;-69
2022/06/27 11:37:50;;;;;;;;;4.00;2.40;;;;;;;;4979660;28;8775;-69
2022/06/27 11:40:17;;;;;;;;;3.00;3.00;;;;;;;;4981239;28;8790;-69
2022/06/27 11:42:44;;;;;;;;;3.00;3.00;;;;;;;;4980463;28;8843;-69
2022/06/27 11:45:12;;;;;;;;;5.60;4.20;;;;;;;;4980711;28;8795;-70
2022/06/27 11:47:40;;;;;;;;;5.60;4.00;;;;;;;;4980158;28;8806;-69
2022/06/27 11:50:07;;;;;;;;;5.80;4.60;;;;;;;;4980607;28;8802;-69
2022/06/27 11:52:37;;;;;;;;;5.20;5.20;;;;;;;;4980281;28;8748;-69
2022/06/27 11:55:08;;;;;;;;;12.00;7.60;;;;;;;;4981640;28;8862;-70
2022/06/27 11:57:36;;;;;;;;;8.80;7.40;;;;;;;;4980609;28;8775;-69
2022/06/27 12:00:04;;;;;;;;;15.40;10.40;;;;;;;;4980311;28;8798;-70
2022/06/27 12:02:31;;;;;;;;;34.00;24.00;;;;;;;;4979785;28;9501;-69
2022/06/27 12:05:04;;;;;;;;;39.50;31.00;;;;;;;;4980174;28;8822;-69
2022/06/27 12:07:31;;;;;;;;;46.75;35.50;;;;;;;;4978852;28;8755;-69
2022/06/27 12:09:57;;;;;;;;;52.50;39.00;;;;;;;;4980078;28;8764;-69
2022/06/27 12:12:29;;;;;;;;;55.25;43.00;;;;;;;;4979794;28;8826;-69
2022/06/27 12:14:55;;;;;;;;;51.00;39.50;;;;;;;;4980082;28;8787;-69
2022/06/27 12:17:23;;;;;;;;;47.50;34.50;;;;;;;;4979404;28;9424;-69
2022/06/27 12:20:02;;;;;;;;;32.25;29.25;;;;;;;;4979645;28;8764;-70
2022/06/27 12:22:29;;;;;;;;;36.50;28.75;;;;;;;;4962262;28;8798;-69
2022/06/27 12:24:55;;;;;;;;;35.25;30.75;;;;;;;;4963750;28;8914;-69
2022/06/27 12:27:22;;;;;;;;;27.25;23.50;;;;;;;;4979301;28;8882;-69
2022/06/27 12:29:49;;;;;;;;;14.50;12.50;;;;;;;;4979453;28;8818;-69
2022/06/27 12:32:15;;;;;;;;;16.40;12.40;;;;;;;;4962464;28;8794;-69
2022/06/27 12:34:42;;;;;;;;;15.25;13.75;;;;;;;;4962194;28;8795;-69
2022/06/27 12:37:08;;;;;;;;;13.20;10.60;;;;;;;;4962661;28;8776;-69
2022/06/27 12:39:35;;;;;;;;;13.80;10.00;;;;;;;;4979072;28;9088;-69
2022/06/27 12:42:02;;;;;;;;;12.40;9.20;;;;;;;;4979478;28;8791;-69
2022/06/27 12:44:28;;;;;;;;;8.20;8.20;;;;;;;;4942240;28;8801;-69
2022/06/27 12:46:55;;;;;;;;;8.00;8.00;;;;;;;;4940954;28;9083;-69
2022/06/27 12:49:22;;;;;;;;;10.00;8.60;;;;;;;;4941247;28;8821;-68
2022/06/27 12:51:49;;;;;;;;;8.40;8.00;;;;;;;;4941021;28;8809;-69
2022/06/27 12:54:15;;;;;;;;;9.40;8.80;;;;;;;;4940808;28;8801;-69
2022/06/27 12:56:42;;;;;;;;;17.40;15.80;;;;;;;;4955377;28;8789;-69
2022/06/27 12:59:09;;;;;;;;;24.00;17.50;;;;;;;;4940740;28;8789;-69
2022/06/27 13:01:35;;;;;;;;;22.25;20.50;;;;;;;;4940380;28;8798;-69
2022/06/27 13:04:02;;;;;;;;;14.00;12.40;;;;;;;;4941154;29;8789;-69
2022/06/27 13:06:29;;;;;;;;;7.80;7.20;;;;;;;;4940524;29;8786;-69
2022/06/27 13:08:55;;;;;;;;;21.50;18.75;;;;;;;;4940373;28;8865;-69
2022/06/27 13:11:22;;;;;;;;;23.50;16.00;;;;;;;;4940171;28;8895;-68
2022/06/27 13:13:49;;;;;;;;;24.25;18.00;;;;;;;;4940822;28;8797;-69
2022/06/27 13:16:15;;;;;;;;;16.75;16.50;;;;;;;;4940944;29;9442;-69
2022/06/27 13:18:42;;;;;;;;;21.25;19.25;;;;;;;;4940088;28;8874;-69
2022/06/27 13:21:08;;;;;;;;;17.60;13.40;;;;;;;;4923186;29;8781;-69
2022/06/27 13:23:35;;;;;;;;;19.25;18.25;;;;;;;;4939939;28;8805;-69
2022/06/27 13:26:04;;;;;;;;;25.25;21.50;;;;;;;;4940256;28;8785;-69
2022/06/27 13:28:34;;;;;;;;;24.50;17.25;;;;;;;;4940449;28;8785;-69
2022/06/27 13:31:01;;;;;;;;;27.60;21.00;;;;;;;;4940208;29;8844;-69
2022/06/27 13:33:28;;;;;;;;;21.50;20.75;;;;;;;;4939555;28;9028;-70
2022/06/27 13:35:54;;;;;;;;;27.50;19.50;;;;;;;;4940313;28;8805;-70
2022/06/27 13:38:21;;;;;;;;;21.75;18.75;;;;;;;;4939802;28;8781;-69
2022/06/27 13:40:48;;;;;;;;;26.00;19.75;;;;;;;;4940215;29;9497;-70
2022/06/27 13:43:15;;;;;;;;;20.25;16.50;;;;;;;;4955463;28;8794;-70
2022/06/27 13:45:41;;;;;;;;;20.75;15.00;;;;;;;;4954384;29;8797;-69
2022/06/27 13:48:08;;;;;;;;;19.25;14.75;;;;;;;;4939898;28;8827;-70
2022/06/27 13:50:35;;;;;;;;;13.40;11.00;;;;;;;;4938112;29;8813;-70
2022/06/27 13:53:03;;;;;;;;;14.60;13.40;;;;;;;;4954601;28;8797;-69
2022/06/27 13:55:30;;;;;;;;;9.60;9.60;;;;;;;;4939843;28;8848;-69
2022/06/27 13:57:56;;;;;;;;;10.00;8.20;;;;;;;;4940683;29;8877;-69
2022/06/27 14:00:23;;;;;;;;;11.00;9.40;;;;;;;;4939489;28;8824;-69
2022/06/27 14:02:49;;;;;;;;;11.80;9.80;;;;;;;;4939531;28;8792;-70
2022/06/27 14:05:17;;;;;;;;;13.20;10.80;;;;;;;;4939938;28;8804;-70
2022/06/27 14:07:45;;;;;;;;;15.60;10.80;;;;;;;;4939711;28;8913;-69
2022/06/27 14:10:21;;;;;;;;;14.50;13.00;;;;;;;;4940203;29;8790;-69
2022/06/27 14:12:48;;;;;;;;;13.20;11.00;;;;;;;;4939421;28;8801;-70
2022/06/27 14:15:15;;;;;;;;;11.00;9.80;;;;;;;;4939966;28;8891;-69
2022/06/27 14:17:43;;;;;;;;;12.80;11.40;;;;;;;;4939484;28;8801;-69
2022/06/27 14:20:10;;;;;;;;;17.60;12.20;;;;;;;;4955642;28;8899;-69
2022/06/27 14:22:37;;;;;;;;;23.00;17.75;;;;;;;;4943229;28;8793;-69
2022/06/27 14:25:04;;;;;;;;;32.50;21.50;;;;;;;;4944162;29;8761;-69
2022/06/27 14:27:31;;;;;;;;;29.25;27.00;;;;;;;;4941974;28;8901;-69
2022/06/27 14:29:58;;;;;;;;;32.25;26.75;;;;;;;;4943290;28;8821;-69
2022/06/27 14:32:24;;;;;;;;;31.25;23.25;;;;;;;;4941669;28;8820;-69
2022/06/27 14:34:51;;;;;;;;;26.25;23.25;;;;;;;;4943415;28;8896;-69
2022/06/27 14:37:18;;;;;;;;;20.50;20.00;;;;;;;;4958358;28;8836;-69
2022/06/27 14:39:44;;;;;;;;;20.50;17.00;;;;;;;;4941958;29;9423;-69
2022/06/27 14:42:11;;;;;;;;;19.50;15.25;;;;;;;;4942859;28;9944;-69
2022/06/27 14:44:38;;;;;;;;;19.00;16.50;;;;;;;;4978219;28;8865;-69
2022/06/27 14:47:10;;;;;;;;;19.25;15.00;;;;;;;;4981387;28;8842;-69
2022/06/27 14:49:36;;;;;;;;;21.40;17.60;;;;;;;;4981195;28;8851;-69
2022/06/27 14:52:03;;;;;;;;;18.50;17.50;;;;;;;;4981984;28;8764;-70
2022/06/27 14:54:30;;;;;;;;;19.25;17.75;;;;;;;;4981093;28;9967;-69
2022/06/27 14:56:58;;;;;;;;;19.00;13.50;;;;;;;;4981342;28;8760;-69
2022/06/27 14:59:25;;;;;;;;;19.20;15.80;;;;;;;;4981095;28;8755;-69